createdAt,value
2022-12-29T00:02:08.938Z,46.23
2022-12-29T00:04:43.088Z,47.37
2022-12-29T00:07:17.985Z,47.73
2022-12-29T00:09:51.879Z,47.57
2022-12-29T00:12:27.678Z,47.50
2022-12-29T00:15:16.950Z,49.73
2022-12-29T00:17:51.607Z,47.93
2022-12-29T00:20:41.394Z,48.43
2022-12-29T00:23:31.570Z,48.93
2022-12-29T00:26:25.333Z,49.13
2022-12-29T00:29:17.075Z,48.93
2022-12-29T00:32:08.095Z,48.57
2022-12-29T00:34:57.942Z,48.73
2022-12-29T00:37:44.860Z,46.87
2022-12-29T00:40:36.273Z,47.67
2022-12-29T00:43:26.295Z,47.00
2022-12-29T00:46:02.590Z,46.20
2022-12-29T00:48:53.640Z,46.93
2022-12-29T00:51:27.601Z,47.67
2022-12-29T00:54:01.395Z,47.87
2022-12-29T00:56:35.839Z,46.87
2022-12-29T00:59:11.057Z,45.83
2022-12-29T01:01:47.194Z,45.97
2022-12-29T01:04:21.107Z,47.07
2022-12-29T01:06:55.857Z,46.53
2022-12-29T01:09:45.772Z,45.60
2022-12-29T01:12:39.861Z,44.37
2022-12-29T01:15:17.291Z,45.20
2022-12-29T01:17:54.415Z,45.13
2022-12-29T01:20:30.024Z,44.17
2022-12-29T01:23:04.071Z,44.13
2022-12-29T01:25:38.141Z,43.53
2022-12-29T01:28:12.988Z,43.17
2022-12-29T01:30:46.988Z,45.00
2022-12-29T01:33:22.799Z,45.77
2022-12-29T01:35:56.587Z,42.97
2022-12-29T01:38:33.097Z,42.17
2022-12-29T01:41:08.497Z,43.17
2022-12-29T01:43:51.268Z,44.40
2022-12-29T01:46:31.561Z,45.10
2022-12-29T01:49:19.472Z,44.20
2022-12-29T01:51:56.193Z,44.10
2022-12-29T01:54:34.742Z,45.30
2022-12-29T01:57:15.349Z,42.07
2022-12-29T01:59:54.782Z,42.37
2022-12-29T02:02:33.200Z,44.17
2022-12-29T02:05:15.877Z,42.00
2022-12-29T02:07:55.495Z,38.33
2022-12-29T02:10:31.251Z,43.07
2022-12-29T02:13:05.451Z,42.40
2022-12-29T02:15:50.982Z,41.33
2022-12-29T02:18:33.610Z,43.30
2022-12-29T02:21:48.086Z,44.63
2022-12-29T02:24:56.411Z,44.10
2022-12-29T02:27:58.070Z,43.20
2022-12-29T02:30:55.341Z,41.50
2022-12-29T02:33:42.583Z,41.50
2022-12-29T02:36:27.700Z,41.27
2022-12-29T02:39:10.357Z,41.23
2022-12-29T02:41:51.997Z,40.37
2022-12-29T02:44:36.762Z,41.90
2022-12-29T02:47:21.300Z,42.03
2022-12-29T02:50:02.577Z,43.27
2022-12-29T02:52:41.187Z,38.70
2022-12-29T02:55:15.575Z,38.53
2022-12-29T02:57:52.541Z,39.03
2022-12-29T03:00:26.797Z,36.67
2022-12-29T03:03:21.029Z,36.57
2022-12-29T03:06:11.703Z,37.10
2022-12-29T03:08:54.267Z,32.70
2022-12-29T03:11:49.160Z,33.83
2022-12-29T03:14:48.176Z,36.70
2022-12-29T03:17:30.018Z,34.27
2022-12-29T03:20:12.199Z,33.63
2022-12-29T03:22:50.253Z,34.17
2022-12-29T03:25:33.472Z,35.50
2022-12-29T03:28:14.999Z,36.03
2022-12-29T03:30:53.159Z,38.23
2022-12-29T03:33:30.504Z,38.90
2022-12-29T03:36:14.214Z,38.47
2022-12-29T03:38:52.564Z,36.40
2022-12-29T03:41:29.416Z,36.37
2022-12-29T03:44:04.687Z,35.90
2022-12-29T03:46:39.265Z,36.47
2022-12-29T03:49:13.584Z,33.17
2022-12-29T03:51:51.881Z,36.23
2022-12-29T03:54:26.581Z,35.07
2022-12-29T03:57:00.759Z,37.20
2022-12-29T03:59:53.828Z,36.70
2022-12-29T04:02:30.268Z,36.40
2022-12-29T04:05:06.971Z,35.03
2022-12-29T04:07:46.178Z,36.50
2022-12-29T04:10:23.515Z,37.00
2022-12-29T04:13:03.974Z,37.00
2022-12-29T04:15:40.813Z,37.93
2022-12-29T04:18:18.892Z,38.83
2022-12-29T04:21:08.269Z,38.90
2022-12-29T04:23:50.134Z,38.07
2022-12-29T04:26:27.162Z,38.23
2022-12-29T04:29:23.089Z,39.73
2022-12-29T04:32:17.342Z,40.07
2022-12-29T04:34:58.889Z,38.93
2022-12-29T04:37:36.491Z,39.37
2022-12-29T04:40:16.556Z,39.23
2022-12-29T04:42:53.534Z,39.83
2022-12-29T04:45:31.335Z,40.97
2022-12-29T04:48:19.510Z,39.93
2022-12-29T04:51:09.784Z,39.70
2022-12-29T04:53:48.551Z,40.77
2022-12-29T04:56:27.889Z,41.20
2022-12-29T04:59:04.418Z,41.60
2022-12-29T05:01:41.203Z,42.63
2022-12-29T05:04:16.002Z,44.23
2022-12-29T05:06:50.988Z,43.90
2022-12-29T05:09:26.550Z,43.40
2022-12-29T05:12:02.583Z,43.60
2022-12-29T05:14:37.984Z,42.87
2022-12-29T05:17:12.088Z,43.30
2022-12-29T05:19:46.423Z,43.33
2022-12-29T05:22:20.901Z,43.93
2022-12-29T05:24:55.822Z,44.07
2022-12-29T05:27:32.327Z,44.40
2022-12-29T05:30:16.867Z,44.97
2022-12-29T05:32:52.375Z,44.33
2022-12-29T05:35:26.476Z,44.27
2022-12-29T05:38:01.194Z,46.53
2022-12-29T05:40:35.871Z,47.53
2022-12-29T05:43:16.531Z,46.80
2022-12-29T05:46:12.858Z,46.00
2022-12-29T05:49:12.721Z,46.53
2022-12-29T05:52:04.934Z,46.97
2022-12-29T05:54:40.436Z,46.87
2022-12-29T05:57:19.279Z,46.37
2022-12-29T06:00:02.252Z,47.60
2022-12-29T06:02:37.034Z,48.10
2022-12-29T06:05:12.184Z,46.80
2022-12-29T06:07:49.222Z,48.40
2022-12-29T06:10:25.431Z,48.27
2022-12-29T06:13:04.444Z,49.00
2022-12-29T06:15:41.626Z,47.20
2022-12-29T06:18:19.870Z,48.10
2022-12-29T06:20:55.430Z,48.90
2022-12-29T06:23:30.997Z,49.80
2022-12-29T06:26:06.579Z,50.93
2022-12-29T06:28:43.375Z,49.37
2022-12-29T06:31:20.210Z,48.33
2022-12-29T06:33:56.208Z,49.13
2022-12-29T06:36:30.886Z,48.73
2022-12-29T06:39:05.141Z,49.20
2022-12-29T06:41:39.633Z,49.77
2022-12-29T06:44:37.110Z,49.37
2022-12-29T06:47:18.001Z,49.07
2022-12-29T06:49:53.178Z,50.03
2022-12-29T06:52:28.457Z,48.93
2022-12-29T06:55:03.074Z,50.23
2022-12-29T06:57:38.053Z,50.40
2022-12-29T07:00:16.958Z,49.70
2022-12-29T07:03:00.861Z,49.27
2022-12-29T07:05:36.605Z,48.43
2022-12-29T07:08:11.404Z,49.37
2022-12-29T07:10:46.031Z,49.83
2022-12-29T07:13:22.227Z,51.17
2022-12-29T07:15:57.720Z,48.83
2022-12-29T07:18:35.254Z,49.73
2022-12-29T07:21:10.657Z,50.93
2022-12-29T07:23:45.918Z,48.77
2022-12-29T07:26:22.446Z,49.73
2022-12-29T07:29:00.608Z,50.07
2022-12-29T07:31:36.176Z,50.57
2022-12-29T07:34:15.753Z,49.70
2022-12-29T07:36:51.590Z,53.53
2022-12-29T07:39:27.708Z,50.80
2022-12-29T07:42:05.338Z,49.83
2022-12-29T07:44:50.907Z,49.50
2022-12-29T07:47:56.236Z,51.00
2022-12-29T07:50:33.887Z,50.63
2022-12-29T07:53:09.421Z,49.90
2022-12-29T07:55:46.045Z,49.90
2022-12-29T07:58:21.543Z,50.77
2022-12-29T08:01:00.457Z,51.50
2022-12-29T08:03:34.962Z,51.27
2022-12-29T08:06:14.752Z,48.87
2022-12-29T08:08:49.449Z,50.47
2022-12-29T08:11:24.483Z,50.67
2022-12-29T08:14:00.175Z,50.83
2022-12-29T08:16:36.013Z,52.17
2022-12-29T08:19:12.137Z,50.43
2022-12-29T08:21:50.875Z,51.83
2022-12-29T08:24:26.748Z,51.00
2022-12-29T08:27:11.846Z,50.87
2022-12-29T08:29:50.839Z,50.30
2022-12-29T08:32:26.410Z,51.03
2022-12-29T08:35:01.955Z,50.03
2022-12-29T08:37:39.409Z,49.77
2022-12-29T08:40:16.535Z,49.73
2022-12-29T08:42:51.931Z,49.03
2022-12-29T08:45:27.093Z,50.40
2022-12-29T08:48:01.856Z,48.63
2022-12-29T08:50:40.139Z,49.70
2022-12-29T08:53:16.563Z,48.73
2022-12-29T08:55:53.886Z,47.73
2022-12-29T08:58:29.069Z,49.37
2022-12-29T09:01:05.447Z,47.80
2022-12-29T09:06:40.171Z,48.20
2022-12-29T09:09:17.578Z,49.77
2022-12-29T09:11:52.543Z,47.00
2022-12-29T09:14:26.610Z,48.30
2022-12-29T09:17:17.718Z,51.60
2022-12-29T09:19:53.073Z,50.13
2022-12-29T09:22:27.957Z,47.90
2022-12-29T09:25:04.239Z,48.27
2022-12-29T09:27:39.048Z,48.13
2022-12-29T09:30:17.165Z,46.83
2022-12-29T09:32:55.115Z,47.80
2022-12-29T09:35:29.775Z,44.80
2022-12-29T09:38:04.284Z,46.23
2022-12-29T09:40:41.877Z,44.60
2022-12-29T09:43:38.242Z,44.13
2022-12-29T09:46:24.379Z,44.23
2022-12-29T09:49:05.851Z,44.13
2022-12-29T09:51:43.210Z,44.63
2022-12-29T09:54:35.483Z,42.53
2022-12-29T09:57:24.707Z,44.37
2022-12-29T10:00:07.001Z,42.63
2022-12-29T10:02:49.770Z,44.70
2022-12-29T10:05:40.779Z,44.57
2022-12-29T10:08:26.758Z,43.87
2022-12-29T10:11:04.784Z,44.60
2022-12-29T10:13:53.189Z,44.17
2022-12-29T10:16:36.209Z,44.80
2022-12-29T10:19:33.450Z,42.60
2022-12-29T10:22:24.588Z,44.77
2022-12-29T10:25:00.991Z,43.80
2022-12-29T10:27:42.730Z,44.50
2022-12-29T10:30:21.498Z,43.77
2022-12-29T10:32:58.926Z,44.40
2022-12-29T10:35:41.707Z,44.33
2022-12-29T10:38:26.290Z,43.43
2022-12-29T10:41:05.864Z,39.93
2022-12-29T10:43:49.092Z,38.30
2022-12-29T10:46:28.609Z,39.47
2022-12-29T10:49:08.013Z,37.30
2022-12-29T10:51:47.358Z,38.57
2022-12-29T10:54:29.238Z,36.47
2022-12-29T10:57:08.962Z,35.20
2022-12-29T10:59:45.246Z,35.60
2022-12-29T11:02:43.673Z,34.40
2022-12-29T11:05:27.091Z,32.07
2022-12-29T11:08:07.634Z,31.93
2022-12-29T11:10:45.478Z,30.13
2022-12-29T11:13:23.639Z,26.43
2022-12-29T11:15:59.761Z,25.23
2022-12-29T11:18:42.402Z,24.97
2022-12-29T11:21:38.570Z,23.77
2022-12-29T11:24:27.010Z,23.93
2022-12-29T11:27:15.223Z,22.77
2022-12-29T11:29:52.279Z,22.63
2022-12-29T11:32:30.215Z,23.13
2022-12-29T11:35:10.063Z,22.40
2022-12-29T11:37:46.987Z,22.37
2022-12-29T11:40:25.713Z,22.73
2022-12-29T11:43:05.282Z,22.33
2022-12-29T11:45:42.246Z,24.23
2022-12-29T11:48:23.583Z,22.50
2022-12-29T11:51:04.569Z,23.73
2022-12-29T11:53:49.872Z,24.00
2022-12-29T11:56:28.348Z,23.37
2022-12-29T11:59:04.110Z,22.37
2022-12-29T12:01:45.231Z,23.47
2022-12-29T12:04:24.655Z,23.53
2022-12-29T12:07:08.686Z,24.67
2022-12-29T12:09:51.997Z,24.53
2022-12-29T12:12:34.508Z,23.83
2022-12-29T12:15:11.983Z,22.87
2022-12-29T12:18:02.384Z,22.70
2022-12-29T12:20:51.889Z,23.37
2022-12-29T12:23:48.441Z,23.37
2022-12-29T12:26:30.443Z,24.90
2022-12-29T12:29:14.070Z,23.77
2022-12-29T12:31:54.555Z,24.83
2022-12-29T12:34:36.031Z,25.10
2022-12-29T12:37:29.288Z,24.87
2022-12-29T12:40:32.663Z,24.03
2022-12-29T12:43:26.609Z,26.10
2022-12-29T12:46:13.794Z,26.00
2022-12-29T12:49:18.440Z,28.50
2022-12-29T12:52:05.305Z,29.97
2022-12-29T12:55:01.933Z,31.97
2022-12-29T12:57:52.072Z,33.17
2022-12-29T13:00:28.900Z,33.47
2022-12-29T13:03:16.671Z,33.80
2022-12-29T13:06:13.902Z,35.03
2022-12-29T13:09:06.924Z,35.57
2022-12-29T13:11:54.874Z,34.43
2022-12-29T13:14:53.111Z,36.60
2022-12-29T13:17:36.767Z,36.10
2022-12-29T13:20:26.566Z,38.03
2022-12-29T13:23:10.808Z,36.60
2022-12-29T13:25:52.420Z,36.27
2022-12-29T13:28:38.383Z,37.43
2022-12-29T13:31:21.806Z,37.77
2022-12-29T13:34:07.248Z,37.97
2022-12-29T13:36:48.355Z,38.53
2022-12-29T13:39:28.707Z,39.43
2022-12-29T13:42:09.261Z,38.87
2022-12-29T13:44:53.780Z,38.97
2022-12-29T13:47:37.566Z,38.47
2022-12-29T13:50:23.137Z,38.20
2022-12-29T13:53:10.517Z,38.07
2022-12-29T13:55:53.807Z,39.13
2022-12-29T13:58:38.687Z,39.90
2022-12-29T14:01:22.138Z,39.03
2022-12-29T14:04:02.629Z,39.03
2022-12-29T14:06:43.230Z,40.23
2022-12-29T14:09:44.716Z,40.30
2022-12-29T14:12:35.306Z,40.27
2022-12-29T14:15:26.087Z,40.67
2022-12-29T14:18:20.891Z,40.67
2022-12-29T14:21:03.112Z,41.00
2022-12-29T14:23:47.167Z,41.00
2022-12-29T14:26:40.150Z,40.90
2022-12-29T14:29:41.349Z,40.77
2022-12-29T14:32:44.772Z,41.00
2022-12-29T14:35:48.840Z,41.20
2022-12-29T14:38:36.189Z,41.70
2022-12-29T14:41:36.779Z,42.57
2022-12-29T14:44:26.502Z,42.50
2022-12-29T14:47:12.014Z,41.50
2022-12-29T14:49:50.980Z,42.20
2022-12-29T14:52:29.893Z,40.30
2022-12-29T14:55:44.557Z,41.17
2022-12-29T14:58:24.528Z,42.23
2022-12-29T15:01:05.212Z,42.53
2022-12-29T15:03:48.266Z,41.77
2022-12-29T15:06:25.671Z,42.03
2022-12-29T15:09:09.699Z,42.53
2022-12-29T15:11:58.634Z,41.97
2022-12-29T15:14:41.580Z,41.80
2022-12-29T15:17:33.338Z,43.13
2022-12-29T15:20:27.546Z,43.47
2022-12-29T15:23:09.331Z,42.77
2022-12-29T15:25:56.253Z,43.03
2022-12-29T15:28:42.615Z,43.83
2022-12-29T15:31:26.326Z,43.77
2022-12-29T15:34:17.011Z,42.97
2022-12-29T15:36:55.833Z,43.03
2022-12-29T15:39:35.760Z,43.73
2022-12-29T15:42:20.641Z,43.73
2022-12-29T15:45:10.188Z,42.97
2022-12-29T15:47:51.745Z,42.90
2022-12-29T15:50:32.762Z,44.50
2022-12-29T15:53:09.046Z,44.77
2022-12-29T15:55:46.709Z,44.47
2022-12-29T15:58:30.562Z,44.33
2022-12-29T16:01:08.891Z,44.87
2022-12-29T16:03:44.036Z,44.73
2022-12-29T16:06:36.840Z,43.73
2022-12-29T16:09:11.939Z,44.13
2022-12-29T16:11:50.060Z,45.73
2022-12-29T16:14:27.690Z,45.17
2022-12-29T16:17:07.682Z,44.30
2022-12-29T16:19:45.063Z,45.00
2022-12-29T16:22:26.624Z,44.73
2022-12-29T16:25:05.320Z,44.50
2022-12-29T16:27:44.329Z,45.37
2022-12-29T16:30:33.128Z,44.70
2022-12-29T16:33:12.147Z,44.90
2022-12-29T16:35:55.222Z,44.57
2022-12-29T16:38:36.033Z,45.57
2022-12-29T16:41:10.039Z,43.43
2022-12-29T16:43:45.911Z,45.13
2022-12-29T16:46:31.997Z,46.30
2022-12-29T16:49:08.083Z,46.57
2022-12-29T16:51:43.301Z,46.30
2022-12-29T16:54:26.405Z,47.27
2022-12-29T16:57:00.907Z,48.73
2022-12-29T16:59:38.926Z,46.33
2022-12-29T17:02:18.151Z,48.13
2022-12-29T17:04:55.365Z,46.77
2022-12-29T17:07:30.324Z,48.90
2022-12-29T17:10:03.985Z,50.37
2022-12-29T17:12:39.910Z,50.63
2022-12-29T17:15:20.032Z,50.07
2022-12-29T17:17:54.761Z,50.00
2022-12-29T17:20:32.510Z,50.00
2022-12-29T17:23:06.954Z,50.20
2022-12-29T17:25:42.496Z,51.27
2022-12-29T17:28:24.088Z,52.53
2022-12-29T17:31:00.054Z,52.30
2022-12-29T17:33:36.051Z,52.80
2022-12-29T17:36:12.392Z,52.03
2022-12-29T17:38:46.850Z,52.73
2022-12-29T17:41:20.809Z,50.93
2022-12-29T17:43:54.685Z,52.83
2022-12-29T17:46:30.692Z,49.83
2022-12-29T17:49:05.545Z,49.43
2022-12-29T17:51:41.712Z,51.47
2022-12-29T17:54:26.595Z,51.83
2022-12-29T17:57:00.597Z,49.37
2022-12-29T17:59:34.802Z,52.27
2022-12-29T18:02:14.650Z,51.63
2022-12-29T18:04:48.923Z,52.67
2022-12-29T18:07:25.077Z,51.00
2022-12-29T18:09:58.899Z,51.10
2022-12-29T18:12:35.676Z,49.63
2022-12-29T18:15:10.085Z,50.47
2022-12-29T18:17:43.840Z,50.17
2022-12-29T18:20:18.609Z,49.93
2022-12-29T18:22:54.763Z,49.53
2022-12-29T18:25:36.506Z,51.47
2022-12-29T18:28:10.625Z,48.73
2022-12-29T18:30:44.750Z,52.67
2022-12-29T18:33:23.300Z,51.47
2022-12-29T18:36:01.753Z,50.13
2022-12-29T18:38:37.693Z,49.93
2022-12-29T18:41:17.192Z,49.33
2022-12-29T18:43:51.476Z,49.87
2022-12-29T18:46:25.641Z,49.17
2022-12-29T18:48:59.810Z,50.60
2022-12-29T18:51:33.537Z,50.43
2022-12-29T18:54:09.427Z,50.83
2022-12-29T18:56:43.286Z,50.63
2022-12-29T18:59:17.343Z,50.27
2022-12-29T19:01:51.548Z,51.27
2022-12-29T19:04:25.907Z,48.73
2022-12-29T19:07:00.839Z,50.40
2022-12-29T19:09:36.563Z,51.47
2022-12-29T19:12:10.716Z,49.73
2022-12-29T19:14:44.853Z,49.97
2022-12-29T19:17:19.777Z,50.60
2022-12-29T19:19:55.160Z,49.03
2022-12-29T19:22:29.449Z,50.10
2022-12-29T19:25:05.215Z,51.33
2022-12-29T19:27:39.337Z,50.90
2022-12-29T19:30:15.575Z,48.03
2022-12-29T19:32:51.866Z,49.13
2022-12-29T19:35:26.996Z,49.70
2022-12-29T19:38:01.122Z,49.20
2022-12-29T19:40:37.128Z,50.13
2022-12-29T19:43:11.182Z,50.60
2022-12-29T19:45:46.417Z,49.37
2022-12-29T19:48:21.853Z,48.90
2022-12-29T19:50:55.604Z,50.00
2022-12-29T19:53:29.437Z,50.57
2022-12-29T19:56:08.314Z,49.43
2022-12-29T19:58:47.489Z,48.00
2022-12-29T20:01:23.525Z,48.43
2022-12-29T20:03:58.231Z,48.73
2022-12-29T20:06:31.929Z,48.77
2022-12-29T20:09:08.081Z,50.93
2022-12-29T20:11:43.999Z,49.90
2022-12-29T20:14:18.541Z,48.17
2022-12-29T20:17:10.092Z,47.87
2022-12-29T20:19:46.211Z,49.57
2022-12-29T20:22:20.355Z,50.07
2022-12-29T20:25:18.313Z,51.40
2022-12-29T20:27:50.446Z,52.13
2022-12-29T20:30:26.491Z,51.63
2022-12-29T20:33:06.086Z,51.33
2022-12-29T20:35:41.795Z,51.20
2022-12-29T20:38:15.764Z,52.13
2022-12-29T20:40:49.921Z,51.93
2022-12-29T20:43:25.725Z,51.57
2022-12-29T20:45:59.895Z,53.87
2022-12-29T20:48:34.848Z,53.77
2022-12-29T20:51:09.543Z,53.73
2022-12-29T20:53:43.769Z,51.93
2022-12-29T20:56:21.403Z,51.87
2022-12-29T21:01:53.380Z,54.30
2022-12-29T21:04:27.568Z,54.50
2022-12-29T21:07:01.338Z,54.47
2022-12-29T21:09:35.212Z,54.07
2022-12-29T21:12:10.221Z,54.93
2022-12-29T21:14:46.190Z,55.50
2022-12-29T21:17:20.244Z,56.40
2022-12-29T21:19:54.092Z,55.90
2022-12-29T21:22:27.879Z,56.13
2022-12-29T21:25:01.750Z,55.37
2022-12-29T21:27:37.053Z,57.27
2022-12-29T21:30:14.237Z,57.53
2022-12-29T21:32:48.383Z,56.30
2022-12-29T21:35:22.448Z,55.93
2022-12-29T21:37:56.456Z,54.77
2022-12-29T21:40:30.208Z,55.53
2022-12-29T21:43:04.763Z,56.70
2022-12-29T21:45:39.037Z,57.40
2022-12-29T21:48:25.544Z,56.87
2022-12-29T21:51:18.085Z,56.87
2022-12-29T21:53:52.303Z,55.10
2022-12-29T21:56:26.233Z,57.07
2022-12-29T21:59:15.815Z,55.90
2022-12-29T22:02:07.308Z,58.30
2022-12-29T22:04:57.344Z,56.23
2022-12-29T22:07:47.449Z,55.27
2022-12-29T22:10:37.395Z,55.87
2022-12-29T22:13:11.286Z,56.97
2022-12-29T22:15:45.413Z,57.30
2022-12-29T22:18:21.884Z,61.20
2022-12-29T22:20:56.024Z,59.40
2022-12-29T22:23:30.074Z,58.57
2022-12-29T22:26:08.522Z,59.63
2022-12-29T22:28:42.991Z,58.43
2022-12-29T22:31:28.998Z,57.93
2022-12-29T22:34:06.500Z,59.07
2022-12-29T22:36:40.520Z,58.03
2022-12-29T22:39:14.357Z,58.30
2022-12-29T22:41:48.456Z,58.60
2022-12-29T22:44:22.318Z,59.10
2022-12-29T22:46:56.444Z,58.53
2022-12-29T22:49:32.597Z,62.37
2022-12-29T22:52:06.459Z,59.23
2022-12-29T22:54:40.424Z,59.97
2022-12-29T22:57:14.199Z,60.00
2022-12-29T22:59:48.202Z,60.17
2022-12-29T23:02:22.130Z,56.50
2022-12-29T23:05:05.747Z,60.73
2022-12-29T23:07:40.266Z,61.87
2022-12-29T23:10:14.551Z,63.20
2022-12-29T23:12:48.762Z,60.63
2022-12-29T23:15:22.613Z,63.20
2022-12-29T23:17:56.666Z,63.63
2022-12-29T23:20:32.579Z,68.70
2022-12-29T23:23:06.645Z,65.37
2022-12-29T23:25:41.320Z,65.47
2022-12-29T23:28:15.006Z,64.20
2022-12-29T23:30:49.528Z,67.70
2022-12-29T23:33:23.789Z,67.63
2022-12-29T23:35:59.883Z,67.60
2022-12-29T23:38:34.226Z,65.43
2022-12-29T23:41:08.026Z,68.30
2022-12-29T23:43:42.161Z,66.87
2022-12-29T23:46:17.585Z,67.97
2022-12-29T23:48:51.320Z,70.17
2022-12-29T23:51:27.684Z,66.37
2022-12-29T23:54:01.841Z,71.57
2022-12-29T23:56:35.763Z,72.40
2022-12-29T23:59:10.404Z,70.80
